昆明 の空港の天気 - METARとTAF

昆明巫家餽国際空港 ( ZPPP / KMG ) - 中華人民共和国 雲南省昆明市
飛行場実況気象(Metar)
観測時間01/21 01:00 CST (01/20 17:00 UTC)
風向・風速南南西 7m/s
視程10km以上
天気現象
なし
気温9℃
湿度66%
気圧1024hPa
METARZPPP 201700Z 21007MPS CAVOK 09/03 Q1024 NOSIG
過去の天気等 Google飛行場航空写真 Wunderground天気予報

過去48時間のMETAR

飛行場予報(TAF)
発表時間: 1/20 21:12 CST (1/20 13:12 UTC)
予報対象時間: 21日2時 CST ~ 22日2時 CST
風向・風速南西 6m/s
視程10km以上
全天の4割程度の雲 雲底高度 700m
TAF ZPPP 201312Z 2018/2118 22006MPS 9999 SCT023 TX18/2108Z TN03/2023Z